CA-0479 weather

Williams Lake / Wayne Peterson Heliport
British Columbia, Canada

Public forecast

Using degrees Celsius for public forecast. Weather courtesy of forecast.io.

METAR (pilot weather report)

Closest report is Williams Lake Airport, 4.1 nm (7.5 km) NNE. Retrieved 2019/08/25 14:00 UTC (25 minutes ago):

CYWL 251400Z VRB02KT 15SM BKN070 BKN090 BKN220 10/06 A3005 RMK AC5AC2CI1 CI TR SLP186 DENSITY ALT 3100FT

TAF (pilot weather forecast)

Closest forecast is Williams Lake Airport, 4.1 nm (7.5 km) NNE. Retrieved 2019/08/25 13:42 UTC (43 minutes ago):

TAF CYWL 251238Z 2513/2601 VRB03KT P6SM SCT050 BKN100 TEMPO 2513/2516 P6SM -SHRA BKN040 BECMG 2514/2516 30008KT FM251600 30008KT P6SM SCT060 TEMPO 2516/2601 BKN040 RMK NXT FCST BY 251900Z